Time;durP1;ratioP1;P1;durP2;ratioP2;P2;SDS_P1;SDS_P2;PMS_P1;PMS_P2;Temp;Humidity;BMP_temperature;BMP_pressure;BME280_temperature;BME280_humidity;BME280_pressure;Samples;Min_cycle;Max_cycle;Signal;HPM_P1;HPM_P2
2023/09/22 00:02:03;;;;;;;0.40;0.13;;;15.60;99.90;;;;;;5024894;28;20697;-56
2023/09/22 00:04:31;;;;;;;2.53;0.20;;;15.60;99.90;;;;;;5010974;28;20385;-55
2023/09/22 00:06:58;;;;;;;0.40;0.10;;;15.70;99.90;;;;;;5011076;28;20272;-55
2023/09/22 00:09:28;;;;;;;0.50;0.20;;;15.70;99.90;;;;;;5023966;28;20227;-55
2023/09/22 00:11:57;;;;;;;1.23;0.47;;;15.70;99.90;;;;;;5026774;28;20671;-55
2023/09/22 00:14:24;;;;;;;1.60;1.50;;;15.60;99.90;;;;;;5015050;28;20202;-55
2023/09/22 00:16:51;;;;;;;2.20;2.10;;;15.60;99.90;;;;;;5023217;28;20218;-55
2023/09/22 00:19:18;;;;;;;1.00;1.00;;;15.50;99.90;;;;;;5020187;28;20227;-55
2023/09/22 00:21:45;;;;;;;2.40;1.13;;;15.60;99.90;;;;;;5017389;28;20199;-55
2023/09/22 00:24:14;;;;;;;1.40;0.50;;;15.50;99.90;;;;;;5020108;28;20751;-55
2023/09/22 00:26:41;;;;;;;0.27;0.20;;;15.60;99.90;;;;;;5026129;28;20206;-56
2023/09/22 00:29:09;;;;;;;0.67;0.30;;;15.60;99.90;;;;;;5032575;28;20273;-56
2023/09/22 00:31:36;;;;;;;0.20;0.20;;;15.60;99.90;;;;;;5021452;28;20203;-55
2023/09/22 00:34:03;;;;;;;0.70;0.27;;;15.60;99.90;;;;;;5029471;28;20230;-56
2023/09/22 00:36:30;;;;;;;0.30;0.20;;;15.60;99.90;;;;;;5026863;28;20215;-55
2023/09/22 00:38:57;;;;;;;0.13;0.13;;;15.60;99.90;;;;;;5020685;28;20227;-56
2023/09/22 00:41:23;;;;;;;0.20;0.20;;;15.60;99.90;;;;;;5019744;28;20203;-55
2023/09/22 00:43:50;;;;;;;0.90;0.63;;;15.60;99.90;;;;;;5027322;28;20235;-55
2023/09/22 00:46:23;;;;;;;0.70;0.30;;;15.60;99.90;;;;;;5032124;28;20268;-55
2023/09/22 00:48:51;;;;;;;1.30;0.20;;;15.70;99.90;;;;;;5032238;28;20226;-55
2023/09/22 00:51:19;;;;;;;0.40;0.27;;;15.70;99.90;;;;;;5032366;28;20256;-55
2023/09/22 00:53:48;;;;;;;0.80;0.80;;;15.60;99.90;;;;;;5015099;28;20290;-55
2023/09/22 00:56:16;;;;;;;0.37;0.20;;;15.60;99.90;;;;;;5021674;28;20282;-55
2023/09/22 00:58:43;;;;;;;1.17;0.20;;;15.50;99.90;;;;;;5032365;28;20226;-55
2023/09/22 01:01:10;;;;;;;0.70;0.40;;;15.50;99.90;;;;;;5032276;28;20291;-55
2023/09/22 01:03:38;;;;;;;1.23;0.30;;;15.40;99.90;;;;;;5032002;28;20206;-56
2023/09/22 01:06:09;;;;;;;0.30;0.30;;;15.40;99.90;;;;;;5023001;28;20206;-55
2023/09/22 01:08:36;;;;;;;0.30;0.30;;;15.40;99.90;;;;;;5024767;28;20666;-56
2023/09/22 01:11:03;;;;;;;0.23;0.23;;;15.50;99.90;;;;;;5019082;28;20269;-55
2023/09/22 01:13:30;;;;;;;0.20;0.20;;;15.40;99.90;;;;;;5031821;28;20772;-55
2023/09/22 01:15:58;;;;;;;0.10;0.10;;;15.40;99.90;;;;;;5016523;28;20663;-56
2023/09/22 01:18:25;;;;;;;0.77;0.40;;;15.40;99.90;;;;;;5018860;28;20277;-56
2023/09/22 01:20:57;;;;;;;0.60;0.50;;;15.40;99.90;;;;;;5020320;28;20262;-56
2023/09/22 01:23:25;;;;;;;0.73;0.20;;;15.50;99.90;;;;;;5023778;28;20195;-55
2023/09/22 01:25:52;;;;;;;0.20;0.20;;;15.40;99.90;;;;;;5027350;28;20249;-55
2023/09/22 01:28:19;;;;;;;1.60;0.33;;;15.40;99.90;;;;;;5021963;28;20643;-55
2023/09/22 01:30:46;;;;;;;1.60;0.50;;;15.30;99.90;;;;;;5026461;28;20264;-55
2023/09/22 01:33:13;;;;;;;0.87;0.30;;;15.20;99.90;;;;;;5017006;28;20203;-55
2023/09/22 01:35:40;;;;;;;0.90;0.50;;;15.20;99.90;;;;;;5010152;28;20226;-56
2023/09/22 01:38:19;;;;;;;0.20;0.20;;;15.20;99.90;;;;;;5032618;23;20227;-57
2023/09/22 01:40:47;;;;;;;0.40;0.30;;;15.20;99.90;;;;;;4973896;28;20287;-57
2023/09/22 01:43:14;;;;;;;1.67;0.30;;;15.20;99.90;;;;;;4972466;28;20263;-57
2023/09/22 01:45:41;;;;;;;1.17;0.30;;;15.20;99.90;;;;;;4972413;28;20742;-57
2023/09/22 01:48:09;;;;;;;0.30;0.30;;;15.20;99.90;;;;;;4973381;28;20211;-57
2023/09/22 01:50:37;;;;;;;0.50;0.37;;;15.20;99.90;;;;;;4973260;28;20287;-57
2023/09/22 01:53:04;;;;;;;2.13;0.90;;;15.20;99.90;;;;;;4973387;28;20296;-57
2023/09/22 01:55:31;;;;;;;0.20;0.20;;;15.20;99.90;;;;;;4972212;28;20591;-57
2023/09/22 01:57:59;;;;;;;0.87;0.33;;;15.30;99.90;;;;;;4979743;28;20770;-57
2023/09/22 02:00:27;;;;;;;0.20;0.20;;;15.20;99.90;;;;;;4975421;28;20696;-57
2023/09/22 02:02:54;;;;;;;1.40;0.40;;;15.10;99.90;;;;;;4984500;28;20234;-58
2023/09/22 02:05:21;;;;;;;0.40;0.40;;;15.10;99.90;;;;;;4991484;28;20204;-57
2023/09/22 02:07:47;;;;;;;0.30;0.30;;;15.00;99.90;;;;;;4983950;28;20200;-57
2023/09/22 02:10:15;;;;;;;0.30;0.30;;;15.00;99.90;;;;;;4971190;28;20220;-57
2023/09/22 02:12:43;;;;;;;0.30;0.20;;;15.00;99.90;;;;;;4986355;28;20199;-57
2023/09/22 02:15:13;;;;;;;0.30;0.30;;;15.00;99.90;;;;;;4992360;28;20207;-57
2023/09/22 02:17:41;;;;;;;0.30;0.30;;;14.90;99.90;;;;;;4981246;28;20231;-57
2023/09/22 02:20:17;;;;;;;0.30;0.30;;;14.90;99.90;;;;;;4978668;28;20712;-57
2023/09/22 02:22:45;;;;;;;0.27;0.27;;;14.90;99.90;;;;;;4984310;28;20203;-57
2023/09/22 02:25:13;;;;;;;0.83;0.30;;;15.10;99.90;;;;;;4992388;28;20204;-57
2023/09/22 02:27:40;;;;;;;0.70;0.30;;;15.20;99.90;;;;;;4992099;28;20204;-57
2023/09/22 02:30:08;;;;;;;0.77;0.20;;;15.20;99.90;;;;;;4998433;28;20281;-57
2023/09/22 02:32:37;;;;;;;0.20;0.20;;;15.20;99.90;;;;;;4986379;28;20207;-57
2023/09/22 02:35:04;;;;;;;0.30;0.20;;;15.30;99.90;;;;;;4978584;28;20208;-57
2023/09/22 02:37:31;;;;;;;0.50;0.50;;;15.20;99.90;;;;;;4978876;28;20216;-57
2023/09/22 02:39:58;;;;;;;2.63;0.40;;;15.20;99.90;;;;;;4979169;28;20232;-57
2023/09/22 02:42:26;;;;;;;0.50;0.50;;;15.10;99.90;;;;;;4981334;28;20211;-57
2023/09/22 02:44:53;;;;;;;0.57;0.57;;;15.00;99.90;;;;;;4988902;28;20210;-57
2023/09/22 02:47:20;;;;;;;0.70;0.37;;;15.00;99.90;;;;;;4986184;28;20652;-57
2023/09/22 02:49:49;;;;;;;2.00;0.50;;;14.90;99.90;;;;;;4990569;28;20219;-57
2023/09/22 02:52:16;;;;;;;0.83;0.30;;;15.00;99.90;;;;;;4998642;28;20207;-57
2023/09/22 02:54:42;;;;;;;0.30;0.20;;;15.00;99.90;;;;;;4998545;28;20204;-57
2023/09/22 02:57:09;;;;;;;0.60;0.30;;;15.00;99.90;;;;;;4990550;28;20224;-57
2023/09/22 02:59:36;;;;;;;0.30;0.30;;;15.00;99.90;;;;;;4990175;28;20228;-57
2023/09/22 03:02:03;;;;;;;0.30;0.30;;;14.90;99.90;;;;;;4978119;28;20201;-57
2023/09/22 03:04:34;;;;;;;0.70;0.60;;;14.90;99.90;;;;;;4980791;28;20263;-57
2023/09/22 03:07:02;;;;;;;1.27;0.40;;;14.90;99.90;;;;;;4978627;28;20631;-57
2023/09/22 03:09:31;;;;;;;2.37;0.60;;;14.90;99.90;;;;;;4978822;28;20225;-57
2023/09/22 03:11:59;;;;;;;0.40;0.40;;;14.90;99.90;;;;;;4978574;28;20224;-57
2023/09/22 03:14:28;;;;;;;1.63;0.40;;;14.90;99.90;;;;;;4978792;28;20205;-57
2023/09/22 03:16:55;;;;;;;0.30;0.30;;;14.90;99.90;;;;;;4977709;28;20263;-57
2023/09/22 03:19:22;;;;;;;0.20;0.20;;;14.90;99.90;;;;;;4978409;28;20762;-57
2023/09/22 03:21:49;;;;;;;0.20;0.20;;;14.90;99.90;;;;;;4979224;28;20204;-57
2023/09/22 03:24:17;;;;;;;0.77;0.40;;;14.90;99.90;;;;;;4980309;28;20208;-57
2023/09/22 03:26:46;;;;;;;1.70;0.30;;;14.90;99.90;;;;;;4978578;28;20267;-57
2023/09/22 03:29:13;;;;;;;0.20;0.20;;;14.90;99.90;;;;;;4977535;28;20231;-57
2023/09/22 03:31:40;;;;;;;1.43;0.53;;;14.90;99.90;;;;;;4977420;28;20259;-57
2023/09/22 03:34:07;;;;;;;0.73;0.53;;;15.00;99.90;;;;;;4978594;28;20208;-57
2023/09/22 03:36:35;;;;;;;0.37;0.37;;;15.00;99.90;;;;;;4978118;28;20299;-57
2023/09/22 03:39:03;;;;;;;2.73;0.70;;;15.00;99.90;;;;;;4978200;28;20232;-57
2023/09/22 03:41:31;;;;;;;1.47;0.40;;;15.10;99.90;;;;;;4975032;28;20208;-57
2023/09/22 03:43:58;;;;;;;0.43;0.37;;;15.00;99.90;;;;;;4974845;28;20258;-57
2023/09/22 03:46:25;;;;;;;0.30;0.30;;;15.00;99.90;;;;;;4974897;28;20259;-58
2023/09/22 03:48:52;;;;;;;0.87;0.40;;;14.90;99.90;;;;;;4975370;28;20275;-57
2023/09/22 03:51:19;;;;;;;0.37;0.30;;;14.90;99.90;;;;;;4974869;28;20209;-57
2023/09/22 03:53:46;;;;;;;0.50;0.30;;;14.90;99.90;;;;;;4975330;28;20200;-57
2023/09/22 03:56:13;;;;;;;0.50;0.43;;;14.90;99.90;;;;;;4974959;28;20200;-57
2023/09/22 03:58:42;;;;;;;0.40;0.37;;;14.90;99.90;;;;;;4977687;28;20223;-57
2023/09/22 04:01:09;;;;;;;0.30;0.30;;;14.90;99.90;;;;;;4977898;28;20680;-57
2023/09/22 04:03:36;;;;;;;0.40;0.40;;;14.90;99.90;;;;;;4974936;28;20646;-57
2023/09/22 04:06:05;;;;;;;0.50;0.50;;;14.90;99.90;;;;;;4974005;28;20638;-57
2023/09/22 04:08:32;;;;;;;0.40;0.40;;;14.90;99.90;;;;;;4974846;28;20240;-57
2023/09/22 04:11:02;;;;;;;0.30;0.30;;;14.90;99.90;;;;;;4974132;28;20255;-57
2023/09/22 04:13:29;;;;;;;0.87;0.40;;;14.80;99.90;;;;;;4974110;28;20196;-57
2023/09/22 04:16:01;;;;;;;0.70;0.70;;;14.90;99.90;;;;;;4973664;28;20200;-57
2023/09/22 04:18:29;;;;;;;0.70;0.40;;;14.90;99.90;;;;;;4974730;28;20220;-57
2023/09/22 04:20:57;;;;;;;0.93;0.30;;;14.90;99.90;;;;;;4974887;28;20289;-57
2023/09/22 04:23:25;;;;;;;0.20;0.20;;;14.90;99.90;;;;;;4974633;28;20244;-57
2023/09/22 04:25:54;;;;;;;0.77;0.40;;;14.90;99.90;;;;;;4973602;28;20315;-57
2023/09/22 04:28:23;;;;;;;1.27;0.40;;;14.90;99.90;;;;;;4974405;28;20247;-57
2023/09/22 04:30:50;;;;;;;0.97;0.30;;;14.80;99.90;;;;;;4974631;28;20292;-57
2023/09/22 04:33:20;;;;;;;1.30;0.50;;;14.80;99.90;;;;;;4975408;28;20264;-57
2023/09/22 04:35:48;;;;;;;0.37;0.30;;;14.90;99.90;;;;;;4979182;28;20212;-57
2023/09/22 04:38:16;;;;;;;1.13;0.37;;;14.90;99.90;;;;;;4977786;28;20316;-57
2023/09/22 04:40:43;;;;;;;0.60;0.20;;;14.80;99.90;;;;;;4977433;28;20209;-57
2023/09/22 04:43:11;;;;;;;0.50;0.50;;;14.80;99.90;;;;;;4973867;28;20209;-57
2023/09/22 04:45:39;;;;;;;0.20;0.20;;;14.80;99.90;;;;;;4985332;28;20195;-57
2023/09/22 04:48:07;;;;;;;0.30;0.30;;;14.80;99.90;;;;;;4974512;28;20664;-57
2023/09/22 04:50:35;;;;;;;0.90;0.50;;;14.70;99.90;;;;;;4972133;28;20209;-57
2023/09/22 04:53:02;;;;;;;1.33;0.20;;;14.70;99.90;;;;;;4973096;28;20672;-57
2023/09/22 04:55:34;;;;;;;0.60;0.20;;;14.70;99.90;;;;;;4973318;28;20267;-57
2023/09/22 04:58:01;;;;;;;0.37;0.37;;;14.60;99.90;;;;;;4972256;28;20229;-57
2023/09/22 05:00:28;;;;;;;1.27;0.23;;;14.60;99.90;;;;;;4974048;28;20641;-58
2023/09/22 05:02:55;;;;;;;0.20;0.20;;;14.60;99.90;;;;;;4970848;28;20208;-57
2023/09/22 05:05:22;;;;;;;1.10;0.40;;;14.60;99.90;;;;;;4970426;28;20232;-57
2023/09/22 05:07:53;;;;;;;1.50;0.20;;;14.60;99.90;;;;;;4971032;28;20204;-57
2023/09/22 05:10:20;;;;;;;0.60;0.60;;;14.50;99.90;;;;;;4973677;28;20224;-57
2023/09/22 05:12:50;;;;;;;2.23;0.40;;;14.50;99.90;;;;;;4972277;28;20208;-57
2023/09/22 05:15:17;;;;;;;3.43;2.23;;;14.50;99.90;;;;;;4972396;28;20651;-57
2023/09/22 05:17:44;;;;;;;0.67;0.67;;;14.50;99.90;;;;;;4972570;28;20204;-57
2023/09/22 05:20:14;;;;;;;1.30;0.90;;;14.50;99.90;;;;;;4972200;28;20307;-57
2023/09/22 05:22:42;;;;;;;0.60;0.60;;;14.40;99.90;;;;;;4969052;28;20608;-57
2023/09/22 05:25:12;;;;;;;1.63;0.60;;;14.40;99.90;;;;;;4972250;28;20584;-57
2023/09/22 05:27:40;;;;;;;1.00;0.57;;;14.40;99.90;;;;;;4971352;28;20204;-57
2023/09/22 05:30:09;;;;;;;1.07;0.60;;;14.30;99.90;;;;;;4968674;28;20224;-57
2023/09/22 05:32:36;;;;;;;1.43;0.80;;;14.40;99.90;;;;;;4972588;28;20665;-57
2023/09/22 05:35:03;;;;;;;1.03;0.83;;;14.40;99.90;;;;;;4980477;28;20205;-57
2023/09/22 05:37:31;;;;;;;0.87;0.87;;;14.40;99.90;;;;;;4979594;28;20260;-57
2023/09/22 05:39:58;;;;;;;1.80;0.53;;;14.40;99.90;;;;;;4983672;28;20231;-57
2023/09/22 05:42:26;;;;;;;0.73;0.60;;;14.30;99.90;;;;;;4980465;28;20735;-57
2023/09/22 05:44:54;;;;;;;2.00;1.87;;;14.30;99.90;;;;;;4971022;28;20201;-57
2023/09/22 05:47:22;;;;;;;3.20;2.17;;;14.30;99.90;;;;;;4972092;28;20201;-57
2023/09/22 05:49:49;;;;;;;1.53;1.43;;;14.30;99.90;;;;;;4973032;28;20212;-57
2023/09/22 05:52:16;;;;;;;4.07;2.40;;;14.30;99.90;;;;;;4973168;28;20234;-57
2023/09/22 05:54:46;;;;;;;3.33;3.03;;;14.30;99.90;;;;;;4973080;28;20205;-57
2023/09/22 05:57:13;;;;;;;3.40;2.20;;;14.20;99.90;;;;;;4971758;28;20239;-57
2023/09/22 05:59:42;;;;;;;4.33;2.90;;;14.30;99.90;;;;;;4965991;28;20603;-57
2023/09/22 06:02:10;;;;;;;2.10;2.00;;;14.30;99.90;;;;;;4972825;28;20197;-57
2023/09/22 06:04:37;;;;;;;4.33;2.57;;;14.20;99.90;;;;;;4972513;28;20233;-57
2023/09/22 06:07:07;;;;;;;2.27;1.63;;;14.20;99.90;;;;;;4966129;28;20923;-57
2023/09/22 06:09:34;;;;;;;3.70;2.30;;;14.20;99.90;;;;;;4965658;28;20220;-57
2023/09/22 06:12:01;;;;;;;2.75;2.45;;;14.20;99.90;;;;;;4971696;28;20441;-57
2023/09/22 06:14:30;;;;;;;1.40;1.27;;;14.20;99.90;;;;;;4971379;28;20211;-62
2023/09/22 06:17:00;;;;;;;2.83;1.80;;;14.20;99.90;;;;;;4971713;28;20204;-63
2023/09/22 06:19:29;;;;;;;5.17;2.77;;;14.30;99.90;;;;;;4971842;28;20228;-63
2023/09/22 06:21:57;;;;;;;4.73;3.07;;;14.30;99.90;;;;;;4972258;28;20201;-65
2023/09/22 06:24:28;;;;;;;2.90;2.30;;;14.20;99.90;;;;;;4970764;28;20204;-64
2023/09/22 06:26:55;;;;;;;3.17;2.97;;;14.20;99.90;;;;;;4965961;28;20234;-65
2023/09/22 06:29:22;;;;;;;2.93;1.60;;;14.30;99.90;;;;;;4970864;28;20216;-65
2023/09/22 06:31:49;;;;;;;1.07;0.73;;;14.30;99.90;;;;;;4971776;28;20660;-62
2023/09/22 06:34:17;;;;;;;1.00;0.80;;;14.30;99.90;;;;;;4967598;28;20201;-63
2023/09/22 06:36:44;;;;;;;1.77;0.40;;;14.30;99.90;;;;;;4971913;28;20656;-63
2023/09/22 06:39:11;;;;;;;2.13;0.63;;;14.30;99.90;;;;;;4971039;28;20224;-63
2023/09/22 06:41:38;;;;;;;1.07;0.63;;;14.20;99.90;;;;;;4971531;28;20283;-63
2023/09/22 06:44:06;;;;;;;0.60;0.50;;;14.30;99.90;;;;;;4971908;28;20670;-62
2023/09/22 06:46:35;;;;;;;3.00;0.70;;;14.20;99.90;;;;;;4970710;28;20243;-63
2023/09/22 06:49:05;;;;;;;1.03;1.03;;;14.20;99.90;;;;;;4971643;28;20231;-63
2023/09/22 06:51:36;;;;;;;0.87;0.87;;;14.20;99.90;;;;;;4977448;28;20220;-64
2023/09/22 06:54:04;;;;;;;1.60;0.70;;;14.20;99.90;;;;;;4971434;28;20215;-64
2023/09/22 06:56:31;;;;;;;2.50;0.70;;;14.20;99.90;;;;;;4969619;28;20261;-64
2023/09/22 06:58:59;;;;;;;0.50;0.33;;;14.20;99.90;;;;;;4970830;28;20321;-63
2023/09/22 07:01:26;;;;;;;1.20;0.40;;;14.10;99.90;;;;;;4971989;28;20208;-63
2023/09/22 07:03:52;;;;;;;1.03;0.40;;;14.10;99.90;;;;;;4970483;28;20259;-65
2023/09/22 07:06:20;;;;;;;0.83;0.40;;;14.10;99.90;;;;;;4971892;28;20608;-65
2023/09/22 07:08:49;;;;;;;1.27;0.80;;;14.00;99.90;;;;;;4972282;28;20316;-65
2023/09/22 07:11:18;;;;;;;0.50;0.47;;;13.90;99.90;;;;;;4971197;28;20655;-66
2023/09/22 07:13:45;;;;;;;0.40;0.40;;;13.90;99.90;;;;;;4972157;28;20632;-65
2023/09/22 07:16:12;;;;;;;0.77;0.60;;;13.90;99.90;;;;;;4973396;28;20204;-65
2023/09/22 07:18:39;;;;;;;2.33;1.20;;;13.90;99.90;;;;;;4975604;28;20681;-63
2023/09/22 07:21:08;;;;;;;1.17;0.60;;;13.90;99.90;;;;;;4976040;28;20200;-65
2023/09/22 07:23:35;;;;;;;0.50;0.50;;;13.90;99.90;;;;;;4975131;28;20235;-62
2023/09/22 07:26:04;;;;;;;0.57;0.57;;;13.90;99.90;;;;;;4974963;28;20665;-63
2023/09/22 07:28:32;;;;;;;0.50;0.50;;;13.80;99.90;;;;;;4982851;28;20295;-63
2023/09/22 07:30:59;;;;;;;0.93;0.50;;;13.80;99.90;;;;;;4980172;28;20196;-65
2023/09/22 07:33:30;;;;;;;0.50;0.33;;;13.80;99.90;;;;;;4973840;28;20213;-65
2023/09/22 07:35:58;;;;;;;1.50;1.33;;;13.80;99.90;;;;;;4975245;28;20197;-67
2023/09/22 07:38:26;;;;;;;0.50;0.40;;;13.80;99.90;;;;;;4976661;28;20728;-65
2023/09/22 07:40:53;;;;;;;1.53;0.63;;;13.70;99.90;;;;;;4980782;28;20628;-66
2023/09/22 07:43:21;;;;;;;2.23;0.30;;;13.70;99.90;;;;;;4975461;28;20256;-66
2023/09/22 07:45:49;;;;;;;0.27;0.20;;;13.70;99.90;;;;;;4968950;28;20197;-55
2023/09/22 07:48:16;;;;;;;1.90;0.23;;;13.70;99.90;;;;;;4975204;28;20295;-56
2023/09/22 07:50:43;;;;;;;0.30;0.20;;;13.70;99.90;;;;;;4978355;28;20196;-56
2023/09/22 07:53:10;;;;;;;5.43;3.50;;;13.70;99.90;;;;;;4977528;28;20576;-56
2023/09/22 07:55:38;;;;;;;6.80;4.37;;;13.60;99.90;;;;;;4974694;28;20219;-64
2023/09/22 07:58:06;;;;;;;7.17;3.17;;;13.60;99.90;;;;;;4974546;28;20287;-56
2023/09/22 08:00:35;;;;;;;2.80;1.50;;;13.60;99.90;;;;;;4973895;28;20251;-56
2023/09/22 08:03:03;;;;;;;1.63;0.93;;;13.60;99.90;;;;;;4973484;28;20196;-56
2023/09/22 08:05:29;;;;;;;5.27;2.93;;;13.60;99.90;;;;;;4974980;28;20230;-56
2023/09/22 08:07:58;;;;;;;3.73;2.90;;;13.50;99.90;;;;;;4968897;28;20209;-56
2023/09/22 08:10:25;;;;;;;4.07;2.47;;;13.50;99.90;;;;;;4971623;28;20200;-56
2023/09/22 08:12:53;;;;;;;1.27;0.67;;;13.50;99.90;;;;;;4978910;28;20238;-56
2023/09/22 08:15:21;;;;;;;1.17;1.13;;;13.50;99.90;;;;;;4972680;28;20337;-56
2023/09/22 08:17:50;;;;;;;5.60;3.77;;;13.50;99.90;;;;;;4969394;28;20608;-56
2023/09/22 08:20:19;;;;;;;9.57;6.10;;;13.50;99.90;;;;;;4981671;28;20303;-56
2023/09/22 08:22:47;;;;;;;0.70;0.70;;;13.50;99.90;;;;;;4981975;28;20571;-56
2023/09/22 08:25:14;;;;;;;2.03;0.50;;;13.40;99.90;;;;;;4990631;28;20287;-56
2023/09/22 08:27:41;;;;;;;0.63;0.63;;;13.40;99.90;;;;;;4993607;28;20622;-56
2023/09/22 08:30:11;;;;;;;0.10;0.10;;;13.30;99.90;;;;;;4994314;28;20356;-56
2023/09/22 08:32:39;;;;;;;0.60;0.30;;;13.30;99.90;;;;;;4988443;28;20239;-56
2023/09/22 08:35:10;;;;;;;0.37;0.20;;;13.30;99.90;;;;;;4976809;28;20280;-56
2023/09/22 08:37:40;;;;;;;0.27;0.27;;;13.30;99.90;;;;;;4981848;28;20204;-56
2023/09/22 08:40:09;;;;;;;1.13;0.30;;;13.40;99.90;;;;;;4990141;28;20323;-56
2023/09/22 08:42:37;;;;;;;2.10;0.47;;;13.30;99.90;;;;;;4994127;28;20204;-56
2023/09/22 08:45:07;;;;;;;0.63;0.33;;;13.30;99.90;;;;;;4994048;28;20204;-56
2023/09/22 08:47:39;;;;;;;0.90;0.30;;;13.30;99.90;;;;;;4993423;28;20695;-56
2023/09/22 08:50:11;;;;;;;3.40;0.40;;;13.30;99.90;;;;;;4983988;28;20212;-56
2023/09/22 08:52:39;;;;;;;1.90;0.40;;;13.40;99.90;;;;;;4955370;29;20233;-56
2023/09/22 08:55:10;;;;;;;0.80;0.77;;;13.30;99.90;;;;;;4955263;29;20201;-56
2023/09/22 08:57:39;;;;;;;0.60;0.30;;;13.20;99.90;;;;;;4955008;28;20588;-56
2023/09/22 09:00:12;;;;;;;0.97;0.97;;;13.20;99.90;;;;;;4954745;29;20225;-56
2023/09/22 09:02:40;;;;;;;1.37;1.30;;;13.20;99.90;;;;;;4956348;28;20685;-56
2023/09/22 09:05:28;;;;;;;1.00;0.90;;;13.20;99.90;;;;;;4972966;28;20376;-56
2023/09/22 09:07:56;;;;;;;1.63;0.50;;;13.30;99.90;;;;;;4976496;28;20239;-56
2023/09/22 09:10:27;;;;;;;0.60;0.60;;;13.30;99.90;;;;;;4974010;28;20204;-56
2023/09/22 09:12:55;;;;;;;0.83;0.83;;;13.30;99.90;;;;;;4974328;28;20255;-56
2023/09/22 09:15:26;;;;;;;1.17;0.40;;;13.30;99.90;;;;;;4973670;28;20206;-56
2023/09/22 09:18:07;;;;;;;0.67;0.50;;;13.30;99.90;;;;;;4983890;28;20440;-56
2023/09/22 09:20:37;;;;;;;0.43;0.30;;;13.40;99.90;;;;;;4971986;28;20275;-56
2023/09/22 09:23:14;;;;;;;0.93;0.60;;;13.40;99.90;;;;;;4973842;28;20199;-56
2023/09/22 09:25:43;;;;;;;0.83;0.60;;;13.40;99.90;;;;;;4972847;28;20283;-56
2023/09/22 09:28:11;;;;;;;0.30;0.30;;;13.30;99.90;;;;;;4973308;28;20290;-56
2023/09/22 09:30:38;;;;;;;1.23;0.50;;;13.30;99.90;;;;;;4966364;28;20271;-56
2023/09/22 09:33:10;;;;;;;1.27;0.40;;;13.20;99.90;;;;;;4973345;28;20211;-56
2023/09/22 09:35:41;;;;;;;1.37;0.40;;;13.10;99.90;;;;;;4971996;28;20292;-56
2023/09/22 09:38:09;;;;;;;1.07;0.60;;;13.20;99.90;;;;;;4971970;28;20204;-56
2023/09/22 09:40:38;;;;;;;2.00;0.70;;;13.20;99.90;;;;;;4973101;28;20220;-56
2023/09/22 09:43:11;;;;;;;0.20;0.20;;;13.10;99.90;;;;;;4973175;28;20254;-56
2023/09/22 09:45:44;;;;;;;2.33;0.30;;;13.00;99.90;;;;;;4971076;28;20207;-56
2023/09/22 09:48:14;;;;;;;0.30;0.27;;;12.90;99.90;;;;;;4973137;28;20226;-56
2023/09/22 09:50:46;;;;;;;0.20;0.20;;;12.90;99.90;;;;;;4973254;28;20246;-56
2023/09/22 09:53:27;;;;;;;0.20;0.10;;;12.90;99.90;;;;;;4973131;28;20206;-55
2023/09/22 09:55:58;;;;;;;1.57;0.30;;;12.80;99.90;;;;;;4971492;28;20211;-56
2023/09/22 09:58:28;;;;;;;1.10;0.60;;;12.80;99.90;;;;;;4971592;28;20275;-56
2023/09/22 10:00:56;;;;;;;2.10;0.87;;;12.70;99.90;;;;;;4972728;28;20787;-56
2023/09/22 10:03:24;;;;;;;1.30;0.30;;;12.70;99.90;;;;;;4965495;28;20228;-57
2023/09/22 10:05:55;;;;;;;0.10;0.10;;;12.60;99.90;;;;;;4971355;28;20204;-55
2023/09/22 10:08:23;;;;;;;0.20;0.20;;;12.60;99.90;;;;;;4972751;28;20244;-56
2023/09/22 10:10:53;;;;;;;0.20;0.10;;;12.60;99.90;;;;;;4968261;28;20201;-56
2023/09/22 10:13:20;;;;;;;0.80;0.20;;;12.60;99.90;;;;;;4973281;28;20210;-56
2023/09/22 10:15:55;;;;;;;0.30;0.20;;;12.60;99.90;;;;;;4968671;28;20271;-56
2023/09/22 10:18:24;;;;;;;0.30;0.30;;;12.60;99.90;;;;;;4973140;28;20216;-56
2023/09/22 10:20:53;;;;;;;1.40;0.10;;;12.30;99.90;;;;;;4965141;28;20217;-56
2023/09/22 10:23:22;;;;;;;0.57;0.10;;;12.30;99.90;;;;;;4972513;28;20205;-56
2023/09/22 10:26:15;;;;;;;0.40;0.10;;;12.30;99.90;;;;;;4969662;28;20214;-56
2023/09/22 10:28:42;;;;;;;1.03;0.07;;;12.20;99.90;;;;;;4964422;28;20312;-56
2023/09/22 10:31:10;;;;;;;0.47;0.10;;;12.10;99.90;;;;;;4976296;28;20245;-56
2023/09/22 10:33:37;;;;;;;0.03;0.03;;;12.10;99.90;;;;;;4963469;28;20232;-56
2023/09/22 10:36:08;;;;;;;3.30;0.13;;;12.10;99.90;;;;;;4968884;28;20675;-56
2023/09/22 10:38:55;;;;;;;0.20;0.17;;;12.10;99.90;;;;;;4972299;28;20669;-56
2023/09/22 10:41:22;;;;;;;1.63;0.10;;;12.10;99.90;;;;;;4972576;28;20224;-56
2023/09/22 10:44:00;;;;;;;0.10;0.10;;;12.20;99.90;;;;;;4966476;28;20207;-56
2023/09/22 10:46:27;;;;;;;0.10;0.10;;;12.10;99.90;;;;;;4971913;28;20634;-56
2023/09/22 10:48:54;;;;;;;0.20;0.20;;;12.00;99.90;;;;;;4970954;28;20226;-55
2023/09/22 10:51:41;;;;;;;0.30;0.30;;;12.00;99.90;;;;;;4975595;28;20660;-65
2023/09/22 10:54:09;;;;;;;1.57;0.10;;;11.90;99.90;;;;;;4980988;28;20206;-63
2023/09/22 10:56:36;;;;;;;0.10;0.00;;;11.80;99.90;;;;;;4975030;28;20207;-61
2023/09/22 10:59:04;;;;;;;2.27;0.10;;;11.90;99.90;;;;;;4976263;28;20289;-57
2023/09/22 11:01:44;;;;;;;0.50;0.10;;;11.90;99.90;;;;;;4975942;28;20226;-56
2023/09/22 11:04:11;;;;;;;0.90;0.10;;;11.90;99.90;;;;;;4974599;28;20254;-64
2023/09/22 11:06:46;;;;;;;0.33;0.10;;;11.90;99.90;;;;;;4968740;28;20207;-64
2023/09/22 11:09:14;;;;;;;0.10;0.10;;;11.80;99.90;;;;;;4976019;28;20459;-65
2023/09/22 11:11:46;;;;;;;0.50;0.10;;;11.80;99.90;;;;;;4978438;28;20202;-65
2023/09/22 11:14:13;;;;;;;0.10;0.10;;;11.80;99.90;;;;;;4975886;28;20678;-55
2023/09/22 11:16:48;;;;;;;0.97;0.20;;;11.80;99.90;;;;;;4973341;28;20626;-61
2023/09/22 11:19:15;;;;;;;0.23;0.10;;;11.80;99.90;;;;;;4975501;28;20228;-63
2023/09/22 11:21:46;;;;;;;0.20;0.10;;;11.80;99.90;;;;;;4975543;28;20231;-66
2023/09/22 11:24:13;;;;;;;0.10;0.10;;;11.90;99.90;;;;;;4973262;28;20708;-64
2023/09/22 11:26:42;;;;;;;0.10;0.10;;;11.80;99.90;;;;;;4981384;28;20197;-62
2023/09/22 11:29:09;;;;;;;0.10;0.10;;;11.90;99.90;;;;;;4980148;28;20261;-63
2023/09/22 11:31:46;;;;;;;0.40;0.10;;;12.00;99.90;;;;;;4983737;28;20204;-63
2023/09/22 11:34:13;;;;;;;1.70;0.50;;;12.00;99.90;;;;;;4975297;28;20203;-64
2023/09/22 11:36:48;;;;;;;0.20;0.10;;;12.00;99.90;;;;;;4975291;28;20624;-65
2023/09/22 11:39:27;;;;;;;0.27;0.10;;;12.00;99.90;;;;;;4975133;28;20290;-64
2023/09/22 11:41:54;;;;;;;0.10;0.10;;;12.10;99.90;;;;;;4975244;28;20258;-65
2023/09/22 11:44:22;;;;;;;0.10;0.10;;;12.00;99.90;;;;;;4974890;28;20208;-66
2023/09/22 11:46:49;;;;;;;0.67;0.67;;;12.00;99.90;;;;;;4975687;28;20741;-66
2023/09/22 11:49:18;;;;;;;0.30;0.10;;;12.00;99.90;;;;;;4975179;28;20285;-66
2023/09/22 11:51:56;;;;;;;0.30;0.03;;;12.00;99.90;;;;;;4975288;28;20207;-64
2023/09/22 11:54:24;;;;;;;0.10;0.10;;;12.00;99.90;;;;;;4976969;28;20262;-66
2023/09/22 11:56:55;;;;;;;0.20;0.20;;;12.00;99.90;;;;;;4973155;28;20199;-64
2023/09/22 11:59:22;;;;;;;0.10;0.10;;;11.90;99.90;;;;;;4974799;28;20691;-65
2023/09/22 12:01:51;;;;;;;0.40;0.33;;;11.80;99.90;;;;;;4973627;28;20261;-66
2023/09/22 12:04:19;;;;;;;0.57;0.20;;;11.80;99.90;;;;;;4974969;28;20285;-64
2023/09/22 12:06:46;;;;;;;1.27;0.10;;;11.80;99.90;;;;;;4973936;28;20239;-64
2023/09/22 12:09:14;;;;;;;0.77;0.00;;;11.80;99.90;;;;;;4974259;28;20280;-60
2023/09/22 12:11:42;;;;;;;0.30;0.10;;;11.80;99.90;;;;;;4974824;28;20197;-56
2023/09/22 12:14:10;;;;;;;1.23;0.10;;;11.80;99.90;;;;;;4974180;28;20203;-56
2023/09/22 12:16:38;;;;;;;0.40;0.10;;;11.90;99.90;;;;;;4972892;28;20298;-56
2023/09/22 12:19:05;;;;;;;0.60;0.10;;;11.90;99.90;;;;;;4973202;28;20278;-56
2023/09/22 12:21:33;;;;;;;0.20;0.20;;;11.90;99.90;;;;;;4978249;28;20228;-55
2023/09/22 12:24:00;;;;;;;0.10;0.10;;;11.90;99.90;;;;;;4974515;28;20207;-55
2023/09/22 12:26:30;;;;;;;0.30;0.13;;;11.90;99.90;;;;;;4974033;28;20212;-55
2023/09/22 12:28:57;;;;;;;0.10;0.10;;;11.90;99.90;;;;;;4974654;28;20741;-55
2023/09/22 12:31:24;;;;;;;0.10;0.10;;;11.90;99.90;;;;;;4974321;28;20914;-55
2023/09/22 12:33:51;;;;;;;0.10;0.10;;;12.00;99.90;;;;;;4974619;28;20254;-55
2023/09/22 12:36:18;;;;;;;0.33;0.10;;;12.00;99.90;;;;;;4973328;28;20843;-55
2023/09/22 12:38:46;;;;;;;0.20;0.00;;;12.00;99.90;;;;;;4974171;28;20322;-55
2023/09/22 12:41:13;;;;;;;0.07;0.07;;;12.00;99.90;;;;;;4986024;28;20222;-55
2023/09/22 12:43:41;;;;;;;0.10;0.10;;;12.10;99.90;;;;;;4969929;28;20576;-55
2023/09/22 12:46:09;;;;;;;1.03;0.27;;;12.20;99.90;;;;;;4979543;28;20258;-56
2023/09/22 12:48:37;;;;;;;1.50;0.10;;;12.20;99.90;;;;;;4975435;28;20248;-55
2023/09/22 12:51:05;;;;;;;0.77;0.10;;;12.20;99.90;;;;;;4973584;28;20586;-55
2023/09/22 12:53:31;;;;;;;0.90;0.33;;;12.30;99.90;;;;;;4974124;28;20759;-55
2023/09/22 12:55:59;;;;;;;0.10;0.10;;;12.30;99.90;;;;;;4973950;28;20283;-55